createdAt,value
2018-07-26T00:04:22.252Z,16.4
2018-07-26T00:09:24.659Z,16.4
2018-07-26T00:14:27.053Z,16.3
2018-07-26T00:19:29.547Z,16.2
2018-07-26T00:24:32.143Z,16.2
2018-07-26T00:34:36.815Z,16.1
2018-07-26T00:39:39.236Z,16.2
2018-07-26T00:44:41.694Z,16.1
2018-07-26T00:49:44.167Z,15.9
2018-07-26T00:54:46.564Z,15.8
2018-07-26T00:59:49.005Z,15.7
2018-07-26T01:04:51.483Z,15.6
2018-07-26T01:09:53.884Z,15.6
2018-07-26T01:14:56.341Z,15.5
2018-07-26T01:19:58.991Z,15.5
2018-07-26T01:25:01.285Z,15.5
2018-07-26T01:30:03.804Z,15.4
2018-07-26T01:35:06.439Z,15.3
2018-07-26T01:40:08.528Z,15.2
2018-07-26T01:45:10.990Z,15.1
2018-07-26T01:50:13.476Z,15
2018-07-26T01:55:15.845Z,15
2018-07-26T02:00:18.477Z,15
2018-07-26T02:05:21.093Z,14.9
2018-07-26T02:10:23.292Z,14.8
2018-07-26T02:15:25.629Z,14.7
2018-07-26T02:20:28.192Z,14.7
2018-07-26T02:25:30.683Z,14.6
2018-07-26T02:30:32.935Z,14.6
2018-07-26T02:35:35.398Z,14.6
2018-07-26T02:40:38.039Z,14.6
2018-07-26T02:45:40.348Z,14.6
2018-07-26T02:50:43.209Z,14.5
2018-07-26T02:55:45.517Z,14.4
2018-07-26T03:00:47.939Z,14.4
2018-07-26T03:05:50.088Z,14.3
2018-07-26T03:10:52.485Z,14.2
2018-07-26T03:15:55.018Z,14.2
2018-07-26T03:20:57.425Z,14.1
2018-07-26T03:25:59.892Z,14
2018-07-26T03:31:02.237Z,14
2018-07-26T03:36:04.694Z,13.9
2018-07-26T03:41:07.108Z,13.9
2018-07-26T03:46:09.540Z,14
2018-07-26T03:51:12.152Z,14
2018-07-26T03:56:14.443Z,14.1
2018-07-26T04:01:17.088Z,14.2
2018-07-26T04:06:19.436Z,14.3
2018-07-26T04:11:21.748Z,14.4
2018-07-26T04:16:24.205Z,14.6
2018-07-26T04:21:26.713Z,14.8
2018-07-26T04:26:29.076Z,15
2018-07-26T04:31:31.538Z,15.2
2018-07-26T04:36:33.978Z,15.4
2018-07-26T04:41:36.463Z,15.5
2018-07-26T04:46:39.204Z,15.7
2018-07-26T04:51:41.476Z,15.9
2018-07-26T04:56:43.800Z,16.1
2018-07-26T05:01:46.667Z,16.4
2018-07-26T05:06:48.617Z,16.7
2018-07-26T05:11:51.184Z,17.1
2018-07-26T05:16:53.847Z,17.5
2018-07-26T05:21:55.980Z,17.9
2018-07-26T05:26:58.466Z,19.6
2018-07-26T05:32:01.331Z,24.4
2018-07-26T05:37:03.660Z,28.2
2018-07-26T05:47:08.286Z,33.5
2018-07-26T05:52:10.825Z,34.5
2018-07-26T05:57:13.014Z,35.2
2018-07-26T06:02:15.617Z,35.5
2018-07-26T06:07:18.356Z,35
2018-07-26T06:12:20.580Z,35.6
2018-07-26T06:17:22.899Z,36.7
2018-07-26T06:22:25.287Z,37.2
2018-07-26T06:27:27.759Z,36.9
2018-07-26T06:32:30.297Z,37.7
2018-07-26T06:37:32.886Z,38.2
2018-07-26T06:42:35.642Z,37.8
2018-07-26T06:47:37.442Z,38.7
2018-07-26T06:52:39.915Z,39.4
2018-07-26T06:57:42.386Z,39.6
2018-07-26T07:02:44.755Z,40.2
2018-07-26T07:07:47.258Z,39.9
2018-07-26T07:12:49.649Z,39
2018-07-26T07:17:52.280Z,39.3
2018-07-26T07:22:54.554Z,39.5
2018-07-26T07:27:57.018Z,40.1
2018-07-26T07:32:59.467Z,39.7
2018-07-26T07:38:02.649Z,38.1
2018-07-26T07:43:04.328Z,37.4
2018-07-26T07:48:06.691Z,38.6
2018-07-26T07:53:09.730Z,38.9
2018-07-26T07:58:11.612Z,38.7
2018-07-26T08:03:14.034Z,38.4
2018-07-26T08:08:16.690Z,37.9
2018-07-26T08:13:18.908Z,38.7
2018-07-26T08:18:21.362Z,38.9
2018-07-26T08:23:23.851Z,39.4
2018-07-26T08:28:26.300Z,39.3
2018-07-26T08:33:28.930Z,38.7
2018-07-26T08:38:31.302Z,36.9
2018-07-26T08:43:33.579Z,36.8
2018-07-26T08:48:36.019Z,36.3
2018-07-26T08:53:38.464Z,35.9
2018-07-26T08:58:40.951Z,35.6
2018-07-26T09:03:43.397Z,35.6
2018-07-26T09:08:45.797Z,36.5
2018-07-26T09:13:48.640Z,34.9
2018-07-26T09:18:50.982Z,32.4
2018-07-26T09:23:53.117Z,33.2
2018-07-26T09:28:55.612Z,33.1
2018-07-26T09:33:58.106Z,31.7
2018-07-26T09:39:00.724Z,31
2018-07-26T09:44:02.883Z,29.7
2018-07-26T09:49:05.426Z,28.9
2018-07-26T09:54:07.906Z,28.5
2018-07-26T09:59:10.266Z,29.4
2018-07-26T10:04:12.731Z,30.1
2018-07-26T10:09:15.295Z,30.1
2018-07-26T10:14:17.606Z,29.7
2018-07-26T10:19:20.066Z,29
2018-07-26T10:24:22.666Z,28.5
2018-07-26T10:29:24.859Z,28.2
2018-07-26T10:34:27.311Z,28.7
2018-07-26T10:39:29.777Z,29.3
2018-07-26T10:49:34.671Z,30.7
2018-07-26T10:54:37.190Z,30.5
2018-07-26T10:59:39.498Z,30.3
2018-07-26T11:04:42.277Z,29.9
2018-07-26T11:09:44.461Z,29.6
2018-07-26T11:14:46.905Z,29.7
2018-07-26T11:19:49.365Z,29.8
2018-07-26T11:24:52.181Z,30
2018-07-26T11:29:54.445Z,29.7
2018-07-26T11:34:56.603Z,29.8
2018-07-26T11:39:59.162Z,29.2
2018-07-26T11:45:01.543Z,28.8
2018-07-26T11:50:04.009Z,28.6
2018-07-26T11:55:06.363Z,28.4
2018-07-26T12:00:08.889Z,28.6
2018-07-26T12:05:12.720Z,29.2
2018-07-26T12:10:14.383Z,29.5
2018-07-26T12:15:19.244Z,29.7
2018-07-26T12:20:18.683Z,0
2018-07-26T12:25:21.027Z,29.1
2018-07-26T12:30:23.520Z,28.8
2018-07-26T12:35:26.095Z,29.4
2018-07-26T12:40:28.397Z,29.6
2018-07-26T12:45:30.822Z,28.8
2018-07-26T12:50:33.281Z,28.8
2018-07-26T12:55:35.867Z,29.2
2018-07-26T13:00:38.555Z,29.6
2018-07-26T13:05:40.689Z,29.7
2018-07-26T13:10:43.052Z,29.7
2018-07-26T13:15:45.491Z,30
2018-07-26T13:20:47.895Z,30.1
2018-07-26T13:25:50.300Z,30.1
2018-07-26T13:30:53.040Z,30.1
2018-07-26T13:35:55.252Z,29.9
2018-07-26T13:40:57.634Z,30
2018-07-26T13:46:00.586Z,29.7
2018-07-26T13:51:02.561Z,29.7
2018-07-26T13:56:04.970Z,29.9
2018-07-26T14:01:07.411Z,30
2018-07-26T14:06:09.981Z,30
2018-07-26T14:11:12.449Z,30.1
2018-07-26T14:16:15.092Z,29.9
2018-07-26T14:21:17.189Z,30.3
2018-07-26T14:26:19.682Z,30.6
2018-07-26T14:31:22.064Z,30.9
2018-07-26T14:36:24.674Z,30.3
2018-07-26T14:41:27.129Z,30.5
2018-07-26T14:46:29.438Z,30.5
2018-07-26T14:51:31.928Z,30.5
2018-07-26T14:56:34.257Z,30.6
2018-07-26T15:01:36.784Z,30.5
2018-07-26T15:11:41.676Z,30.2
2018-07-26T15:16:44.171Z,30.1
2018-07-26T15:21:46.498Z,30
2018-07-26T15:26:48.949Z,29.6
2018-07-26T15:31:52.611Z,29.3
2018-07-26T15:36:54.382Z,29.5
2018-07-26T15:41:56.262Z,29.8
2018-07-26T15:46:58.785Z,29.8
2018-07-26T15:52:01.208Z,29.7
2018-07-26T15:57:03.851Z,29.6
2018-07-26T16:02:06.017Z,29.6
2018-07-26T16:07:08.486Z,29.4
2018-07-26T16:12:11.041Z,29.5
2018-07-26T16:17:13.836Z,29.5
2018-07-26T16:22:15.819Z,29.5
2018-07-26T16:27:18.227Z,29.3
2018-07-26T16:32:20.665Z,29.2
2018-07-26T16:37:23.104Z,29.2
2018-07-26T16:42:25.752Z,29
2018-07-26T16:47:28.004Z,28.7
2018-07-26T16:52:30.500Z,28.5
2018-07-26T16:57:32.927Z,28.4
2018-07-26T17:02:35.317Z,28.3
2018-07-26T17:07:37.749Z,28.3
2018-07-26T17:12:40.571Z,28.2
2018-07-26T17:17:42.680Z,28.2
2018-07-26T17:22:45.387Z,28
2018-07-26T17:27:47.601Z,27.7
2018-07-26T17:32:49.967Z,27.7
2018-07-26T17:37:52.473Z,27.6
2018-07-26T17:42:54.868Z,27.5
2018-07-26T17:47:57.313Z,27.4
2018-07-26T17:52:59.758Z,27.4
2018-07-26T17:58:02.243Z,27.2
2018-07-26T18:03:04.671Z,27.1
2018-07-26T18:08:07.094Z,26.9
2018-07-26T18:13:09.510Z,26.8
2018-07-26T18:18:11.967Z,26.6
2018-07-26T18:23:14.477Z,26.4
2018-07-26T18:28:16.952Z,26.3
2018-07-26T18:33:19.440Z,26.1
2018-07-26T18:38:21.780Z,25.9
2018-07-26T18:43:24.382Z,25.7
2018-07-26T18:48:26.737Z,25.4
2018-07-26T18:53:29.370Z,25.1
2018-07-26T18:58:31.628Z,24.7
2018-07-26T19:03:34.205Z,24.4
2018-07-26T19:08:36.380Z,24.1
2018-07-26T19:13:39.469Z,23.8
2018-07-26T19:18:41.373Z,23.7
2018-07-26T19:23:43.705Z,23.5
2018-07-26T19:28:46.188Z,23.3
2018-07-26T19:33:48.611Z,23.2
2018-07-26T19:43:53.659Z,22.5
2018-07-26T19:48:56.268Z,22.2
2018-07-26T19:53:58.384Z,22
2018-07-26T19:59:00.921Z,21.8
2018-07-26T20:04:03.522Z,21.6
2018-07-26T20:09:05.706Z,21.4
2018-07-26T20:14:10.996Z,21.3
2018-07-26T20:19:10.669Z,21
2018-07-26T20:24:13.014Z,20.8
2018-07-26T20:29:15.630Z,20.6
2018-07-26T20:34:17.941Z,20.3
2018-07-26T20:44:22.765Z,19.8
2018-07-26T20:49:25.292Z,19.7
2018-07-26T20:54:27.679Z,19.6
2018-07-26T20:59:30.154Z,19.5
2018-07-26T21:04:32.692Z,19.3
2018-07-26T21:09:34.947Z,19.2
2018-07-26T21:14:37.540Z,19
2018-07-26T21:19:39.879Z,18.9
2018-07-26T21:24:42.284Z,18.8
2018-07-26T21:29:45.335Z,18.7
2018-07-26T21:34:47.159Z,18.7
2018-07-26T21:39:49.704Z,18.5
2018-07-26T21:44:52.132Z,18.3
2018-07-26T21:49:54.519Z,18.2
2018-07-26T21:54:56.933Z,18.1
2018-07-26T21:59:59.370Z,18.1
2018-07-26T22:05:01.955Z,18.1
2018-07-26T22:10:04.340Z,17.9
2018-07-26T22:15:06.727Z,17.8
2018-07-26T22:20:09.486Z,17.7
2018-07-26T22:25:11.573Z,17.6
2018-07-26T22:30:15.463Z,17.5
2018-07-26T22:35:16.593Z,17.4
2018-07-26T22:50:23.792Z,17.1
2018-07-26T22:55:26.212Z,17
2018-07-26T23:00:28.722Z,17
2018-07-26T23:05:31.178Z,17
2018-07-26T23:10:33.559Z,16.9
2018-07-26T23:15:36.001Z,16.9
2018-07-26T23:20:38.438Z,17
2018-07-26T23:25:41.466Z,17
2018-07-26T23:30:43.364Z,16.9
2018-07-26T23:35:45.763Z,16.8
2018-07-26T23:40:48.261Z,16.7
2018-07-26T23:45:50.635Z,16.6
2018-07-26T23:50:53.268Z,16.5
2018-07-26T23:55:55.506Z,16.5
